Lilburn, Georgia
Current Conditions -  °F | °C
As of 10:53 AM on Saturday 25 Oct 2014 (Local Time) from KPDK Reporting Station
Clear Clear  
Wind Chill: 63°   Ceiling: Unl
Heat Index: 63°   Visibility: 10mi
Dew Point: 43°   Wind: 3mph
Humidity: 48%   Direction: 340°NNW
Pressure: 30.08"   Gusts: NA
Location:  33.89°N, 84.13°W
Report Text: KPDK 251453Z 34003KT 10SM CLR 17/06 A3008 RMK AO2 SLP185 T01720061 51007 $
Loading
Personal Weather Stations






























Interactive Weather Map
Tropical Storm Tracking
New forecast layout! Learn more

10-Day Weather Forecast

Advertisements
Track Severe Weather on mobile